Time;durP1;ratioP1;P1;durP2;ratioP2;P2;SDS_P1;SDS_P2;PMS_P1;PMS_P2;Temp;Humidity;BMP_temperature;BMP_pressure;BME280_temperature;BME280_humidity;BME280_pressure;Samples;Min_cycle;Max_cycle;Signal;HPM_P1;HPM_P2
2022/09/08 00:00:26;;;;;;;10.07;3.55;;;;;;;19.67;71.52;100439.25;5082611;28;20482;-56
2022/09/08 00:02:54;;;;;;;11.10;4.35;;;;;;;19.67;71.36;100434.69;5092455;28;20497;-56
2022/09/08 00:05:24;;;;;;;9.73;3.63;;;;;;;19.67;71.32;100436.56;5093962;28;20051;-57
2022/09/08 00:07:54;;;;;;;13.88;4.15;;;;;;;19.65;71.34;100431.41;5095929;28;20044;-56
2022/09/08 00:10:23;;;;;;;10.68;3.70;;;;;;;19.58;71.80;100427.97;5095282;28;20038;-55
2022/09/08 00:12:49;;;;;;;16.55;4.07;;;;;;;19.65;71.29;100417.94;5095537;28;20059;-56
2022/09/08 00:15:17;;;;;;;10.35;4.10;;;;;;;19.65;71.61;100417.13;5079460;28;20127;-55
2022/09/08 00:17:43;;;;;;;10.68;4.20;;;;;;;19.52;71.87;100408.16;5096069;28;20105;-56
2022/09/08 00:20:10;;;;;;;13.57;4.32;;;;;;;19.51;71.95;100406.47;5094581;28;20054;-56
2022/09/08 00:22:37;;;;;;;18.17;4.93;;;;;;;19.51;72.42;100400.28;5095343;28;20052;-56
2022/09/08 00:25:04;;;;;;;14.05;4.10;;;;;;;19.59;72.19;100391.91;5094482;28;20127;-56
2022/09/08 00:27:31;;;;;;;10.98;4.20;;;;;;;19.55;71.64;100388.03;5095881;28;20452;-56
2022/09/08 00:29:58;;;;;;;13.40;3.95;;;;;;;19.56;71.97;100381.63;5090148;28;20122;-56
2022/09/08 00:32:25;;;;;;;12.73;3.72;;;;;;;19.59;72.07;100383.03;5094530;28;20097;-56
2022/09/08 00:34:52;;;;;;;11.20;3.85;;;;;;;19.59;71.82;100378.47;5095164;28;20040;-56
2022/09/08 00:37:19;;;;;;;8.55;3.75;;;;;;;19.59;71.79;100377.66;5095014;28;20048;-57
2022/09/08 00:39:46;;;;;;;9.52;3.42;;;;;;;19.59;71.48;100375.78;5094615;28;20435;-56
2022/09/08 00:42:13;;;;;;;11.77;3.85;;;;;;;19.53;71.57;100369.41;5095351;28;20051;-56
2022/09/08 00:44:51;;;;;;;13.43;4.18;;;;;;;19.51;71.53;100373.38;5093472;28;20051;-56
2022/09/08 00:47:26;;;;;;;16.17;4.00;;;;;;;19.55;71.82;100367.34;5079712;28;20058;-56
2022/09/08 00:50:01;;;;;;;10.10;3.85;;;;;;;19.49;72.27;100368.22;5095474;28;20040;-56
2022/09/08 00:52:33;;;;;;;11.75;3.95;;;;;;;19.49;71.95;100362.84;5095885;28;20044;-56
2022/09/08 00:55:00;;;;;;;;;;;;;;;19.44;72.50;100357.31;5095241;28;20036;-55
2022/09/08 00:57:27;;;;;;;12.63;3.80;;;;;;;19.44;72.06;100356.50;5095722;28;19932;-54
2022/09/08 00:59:54;;;;;;;10.48;3.53;;;;;;;19.51;71.94;100351.88;5108651;28;20059;-56
2022/09/08 01:02:24;;;;;;;15.15;4.15;;;;;;;19.43;72.08;100355.69;5071325;28;20052;-56
2022/09/08 01:04:57;;;;;;;11.25;4.03;;;;;;;19.46;72.13;100343.63;5081136;28;20048;-56
2022/09/08 01:13:44;;;;;;;14.90;3.58;;;;;;;19.46;71.91;100340.94;5094216;28;20048;-56
2022/09/08 01:16:11;;;;;;;9.88;3.50;;;;;;;19.52;72.19;100350.84;5094428;28;20109;-56
2022/09/08 01:18:38;;;;;;;11.90;4.15;;;;;;;19.40;72.54;100345.34;5077796;28;20050;-56
2022/09/08 01:21:19;;;;;;;14.02;3.75;;;;;;;19.40;71.84;100337.28;5094809;28;20040;-56
2022/09/08 01:24:25;;;;;;;8.15;3.40;;;;;;;19.41;71.93;100336.25;5079170;28;20457;-56
2022/09/08 01:27:18;;;;;;;10.90;3.40;;;;;;;19.44;72.12;100343.03;5094741;28;20131;-56
2022/09/08 01:29:46;;;;;;;16.08;3.88;;;;;;;19.42;72.51;100335.19;5108578;28;20051;-56
2022/09/08 01:32:14;;;;;;;12.98;3.60;;;;;;;19.38;72.57;100336.69;5114406;28;20051;-56
2022/09/08 01:34:44;;;;;;;11.45;3.45;;;;;;;19.44;72.71;100345.72;5075708;28;20103;-55
2022/09/08 01:37:11;;;;;;;14.25;3.83;;;;;;;19.45;72.51;100347.41;5093165;28;20040;-60
2022/09/08 01:39:37;;;;;;;12.30;4.18;;;;;;;19.45;73.13;100353.59;5088946;28;20090;-56
2022/09/08 01:42:05;;;;;;;12.63;3.92;;;;;;;19.40;72.96;100350.72;5092682;28;20040;-55
2022/09/08 01:44:32;;;;;;;11.50;4.00;;;;;;;19.45;73.12;100353.59;5090400;28;20040;-56
2022/09/08 01:47:00;;;;;;;11.48;4.25;;;;;;;19.50;73.49;100351.06;5093185;28;20052;-56
2022/09/08 01:49:27;;;;;;;11.75;3.80;;;;;;;19.48;73.03;100346.94;5092758;28;20028;-56
2022/09/08 01:51:53;;;;;;;12.52;4.22;;;;;;;19.44;72.69;100343.84;5077331;28;20063;-57
2022/09/08 01:54:20;;;;;;;10.10;4.05;;;;;;;19.44;73.21;100343.84;5092758;28;20046;-56
2022/09/08 01:56:47;;;;;;;14.05;4.05;;;;;;;19.52;72.02;100340.91;5093232;28;20798;-56
2022/09/08 01:59:14;;;;;;;10.23;3.75;;;;;;;19.45;72.84;100347.41;5091971;28;20379;-56
2022/09/08 02:01:41;;;;;;;16.25;4.40;;;;;;;19.41;72.96;100351.53;5094234;28;20474;-56
2022/09/08 02:04:08;;;;;;;17.17;4.30;;;;;;;19.42;73.66;100351.31;5093180;28;20048;-56
2022/09/08 02:06:35;;;;;;;12.15;4.15;;;;;;;19.42;73.60;100345.13;5084919;28;20127;-56
2022/09/08 02:09:01;;;;;;;12.05;3.90;;;;;;;19.44;73.71;100341.16;5086413;28;20154;-56
2022/09/08 02:11:28;;;;;;;11.93;4.05;;;;;;;19.45;73.01;100342.00;5094341;28;20048;-56
2022/09/08 02:13:55;;;;;;;11.43;3.95;;;;;;;19.47;73.96;100351.50;5091598;28;20101;-56
2022/09/08 02:16:23;;;;;;;13.10;3.88;;;;;;;19.44;74.20;100354.63;5092784;28;20486;-55
2022/09/08 02:18:51;;;;;;;9.70;4.20;;;;;;;19.42;74.60;100353.22;5094137;28;20127;-56
2022/09/08 02:21:19;;;;;;;13.88;4.30;;;;;;;19.39;74.18;100346.38;5092679;28;20090;-57
2022/09/08 02:23:48;;;;;;;14.05;4.22;;;;;;;19.44;74.39;100346.53;5085708;28;20059;-56
2022/09/08 02:26:20;;;;;;;11.15;4.57;;;;;;;19.49;73.66;100351.28;5077962;28;20044;-56
2022/09/08 02:28:47;;;;;;;13.07;4.10;;;;;;;19.50;73.53;100355.59;5100225;28;20079;-56
2022/09/08 02:31:14;;;;;;;11.90;4.80;;;;;;;19.46;73.99;100347.16;5093700;27;20109;-56
2022/09/08 02:33:41;;;;;;;13.07;4.82;;;;;;;19.54;73.26;100346.06;5092736;28;20485;-56
2022/09/08 02:36:08;;;;;;;14.45;4.90;;;;;;;19.42;74.12;100345.13;5090020;28;20135;-55
2022/09/08 02:38:36;;;;;;;11.65;4.38;;;;;;;19.41;74.41;100355.09;5073274;28;20166;-58
2022/09/08 02:41:03;;;;;;;15.82;4.30;;;;;;;19.32;74.60;100361.78;5075497;28;20109;-56
2022/09/08 02:43:30;;;;;;;16.58;4.63;;;;;;;19.34;74.34;100367.75;5084454;28;20044;-55
2022/09/08 02:46:03;;;;;;;8.95;3.78;;;;;;;19.17;75.27;100364.78;5093625;28;20246;-56
2022/09/08 02:48:30;;;;;;;12.48;3.80;;;;;;;18.93;76.27;100369.94;5092734;28;20094;-56
2022/09/08 02:51:01;;;;;;;14.93;4.05;;;;;;;18.86;77.29;100366.47;5093504;28;20113;-56
2022/09/08 02:53:29;;;;;;;15.17;3.90;;;;;;;18.85;78.67;100364.03;5091721;28;20049;-56
2022/09/08 02:55:57;;;;;;;11.63;3.90;;;;;;;18.81;79.38;100369.03;5091790;28;20302;-56
2022/09/08 02:58:25;;;;;;;12.25;3.65;;;;;;;18.69;82.05;100362.66;5068727;28;20064;-56
2022/09/08 03:00:52;;;;;;;16.42;4.00;;;;;;;18.68;82.18;100369.06;5088648;28;20048;-56
2022/09/08 03:03:19;;;;;;;10.60;3.80;;;;;;;18.63;80.79;100375.09;5092534;28;20127;-56
2022/09/08 03:05:46;;;;;;;10.75;3.67;;;;;;;18.61;81.62;100377.19;5092314;28;20108;-56
2022/09/08 03:08:14;;;;;;;11.90;3.70;;;;;;;18.72;81.76;100379.16;5090103;28;20052;-55
2022/09/08 03:10:41;;;;;;;13.93;3.83;;;;;;;18.78;80.81;100378.28;5091664;28;20464;-54
2022/09/08 03:13:08;;;;;;;11.38;3.63;;;;;;;18.73;83.08;100377.28;5084973;28;20044;-56
2022/09/08 03:15:36;;;;;;;11.60;3.50;;;;;;;18.38;82.53;100372.34;5084683;28;20043;-57
2022/09/08 03:18:04;;;;;;;11.00;3.83;;;;;;;18.41;85.47;100374.59;5092124;28;20101;-56
2022/09/08 03:20:33;;;;;;;14.02;4.00;;;;;;;18.50;84.24;100380.53;5092565;28;20545;-55
2022/09/08 03:23:01;;;;;;;13.70;4.10;;;;;;;18.43;86.35;100383.25;5091952;28;20346;-56
2022/09/08 03:25:28;;;;;;;17.08;4.40;;;;;;;18.47;87.17;100378.28;5093149;28;20044;-56
2022/09/08 03:27:55;;;;;;;8.60;3.40;;;;;;;18.34;86.04;100368.44;5093423;28;20093;-56
2022/09/08 03:30:22;;;;;;;11.20;3.83;;;;;;;18.22;85.80;100370.94;5077069;28;20027;-56
2022/09/08 03:32:50;;;;;;;10.30;3.92;;;;;;;18.21;86.52;100374.69;5071490;28;20056;-56
2022/09/08 03:35:18;;;;;;;10.57;3.83;;;;;;;18.12;88.10;100371.41;5091309;28;20050;-55
2022/09/08 03:37:45;;;;;;;12.32;4.00;;;;;;;17.88;88.09;100364.88;5091816;28;20401;-55
2022/09/08 03:40:15;;;;;;;9.18;3.72;;;;;;;17.97;89.15;100362.78;5095231;28;20040;-56
2022/09/08 03:42:43;;;;;;;11.88;4.47;;;;;;;17.95;90.79;100356.81;5095317;28;20046;-55
2022/09/08 03:45:14;;;;;;;13.35;4.10;;;;;;;17.99;90.42;100368.75;5082460;28;20037;-56
2022/09/08 03:47:42;;;;;;;13.15;4.85;;;;;;;17.95;90.15;100356.81;5088263;28;20048;-55
2022/09/08 03:50:14;;;;;;;14.00;6.10;;;;;;;17.99;91.82;100355.34;5095153;28;20040;-56
2022/09/08 03:52:41;;;;;;;18.23;5.75;;;;;;;17.94;92.75;100356.00;5095858;28;20044;-56
2022/09/08 03:55:09;;;;;;;16.08;5.38;;;;;;;17.79;91.71;100355.38;5096099;28;20541;-55
2022/09/08 03:57:36;;;;;;;16.85;5.50;;;;;;;17.63;92.72;100362.88;5094789;28;20078;-55
2022/09/08 04:00:07;;;;;;;15.27;5.50;;;;;;;17.80;92.15;100363.22;5096276;28;20493;-55
2022/09/08 04:02:41;;;;;;;14.85;5.03;;;;;;;17.88;93.15;100367.56;5085071;28;20074;-56
2022/09/08 04:05:08;;;;;;;15.25;5.63;;;;;;;17.74;96.24;100363.25;5080704;28;20181;-56
2022/09/08 04:07:35;;;;;;;15.95;5.47;;;;;;;17.55;96.15;100367.63;5095040;28;20047;-56
2022/09/08 04:10:04;;;;;;;18.58;4.80;;;;;;;17.65;96.32;100354.63;5078820;28;20064;-56
2022/09/08 04:12:36;;;;;;;10.68;4.05;;;;;;;17.46;94.83;100362.50;5085244;28;20127;-56
2022/09/08 04:15:04;;;;;;;14.05;4.28;;;;;;;17.34;96.23;100361.47;5089010;28;20056;-57
2022/09/08 04:17:31;;;;;;;10.75;3.92;;;;;;;17.46;95.57;100354.44;5093070;28;20062;-55
2022/09/08 04:19:58;;;;;;;15.40;4.38;;;;;;;17.47;98.36;100357.94;5080303;28;20060;-58
2022/09/08 04:22:25;;;;;;;13.95;4.32;;;;;;;17.41;98.76;100359.59;5094747;28;20114;-57
2022/09/08 04:24:51;;;;;;;15.07;4.75;;;;;;;17.45;100.00;100363.50;5076604;28;20114;-56
2022/09/08 04:27:22;;;;;;;17.15;4.88;;;;;;;17.40;98.59;100354.44;5095084;28;20047;-56
2022/09/08 04:29:50;;;;;;;14.63;5.07;;;;;;;17.53;99.38;100348.25;5110361;28;20047;-55
2022/09/08 04:32:18;;;;;;;13.70;5.57;;;;;;;17.51;100.00;100358.34;5116406;28;20039;-55
2022/09/08 04:34:49;;;;;;;15.15;5.93;;;;;;;17.56;100.00;100356.69;5115739;28;20119;-55
2022/09/08 04:37:17;;;;;;;17.80;6.07;;;;;;;17.55;99.02;100359.56;5081134;28;20134;-54
2022/09/08 04:39:44;;;;;;;16.30;6.32;;;;;;;17.50;99.76;100362.06;5095430;28;20040;-54
2022/09/08 04:42:11;;;;;;;19.73;5.80;;;;;;;17.49;99.78;100358.56;5096054;28;20048;-55
2022/09/08 04:44:38;;;;;;;13.95;6.20;;;;;;;17.67;99.27;100357.09;5096036;28;20055;-55
2022/09/08 04:47:05;;;;;;;19.50;5.85;;;;;;;17.65;98.93;100358.09;5095824;28;20405;-55
2022/09/08 04:49:31;;;;;;;13.88;6.38;;;;;;;17.53;98.90;100369.69;5095222;28;20181;-55
2022/09/08 04:51:58;;;;;;;16.40;6.25;;;;;;;17.66;98.80;100364.28;5081210;28;20075;-55
2022/09/08 04:54:25;;;;;;;19.83;7.10;;;;;;;17.74;99.39;100374.81;5095405;28;20071;-55
2022/09/08 04:56:51;;;;;;;18.80;6.90;;;;;;;17.79;99.03;100372.31;5095828;28;20071;-55
2022/09/08 04:59:18;;;;;;;22.88;8.20;;;;;;;17.74;97.46;100361.41;5095492;28;20102;-54
2022/09/08 05:01:45;;;;;;;19.52;7.40;;;;;;;17.69;97.60;100371.13;5095344;28;20051;-53
2022/09/08 05:04:11;;;;;;;14.48;6.18;;;;;;;17.68;98.22;100362.22;5095301;28;20383;-55
2022/09/08 05:06:38;;;;;;;17.40;6.57;;;;;;;17.65;97.16;100368.84;5094525;28;20051;-55
2022/09/08 05:09:05;;;;;;;14.57;5.78;;;;;;;17.49;98.21;100365.78;5074995;28;20072;-55
2022/09/08 05:11:34;;;;;;;20.00;6.43;;;;;;;17.47;98.81;100371.34;5075270;28;20529;-54
2022/09/08 05:14:02;;;;;;;12.70;5.00;;;;;;;17.40;99.70;100375.91;5090664;28;20055;-54
2022/09/08 05:16:30;;;;;;;16.75;5.82;;;;;;;17.30;100.00;100376.31;5074712;28;20064;-55
2022/09/08 05:18:59;;;;;;;15.93;5.82;;;;;;;17.30;100.00;100373.66;5074906;28;20064;-54
2022/09/08 05:21:27;;;;;;;14.13;5.95;;;;;;;17.28;100.00;100378.38;5076051;28;20044;-55
2022/09/08 05:23:55;;;;;;;14.95;6.03;;;;;;;17.29;100.00;100380.03;5076351;28;20036;-55
2022/09/08 05:26:24;;;;;;;14.25;5.53;;;;;;;17.31;100.00;100380.63;5094865;28;20044;-54
2022/09/08 05:28:51;;;;;;;17.33;5.40;;;;;;;17.29;100.00;100381.88;5094823;28;20051;-53
2022/09/08 05:31:21;;;;;;;13.98;4.88;;;;;;;17.21;100.00;100381.06;5094773;28;20044;-54
2022/09/08 05:33:49;;;;;;;12.18;5.10;;;;;;;17.12;100.00;100384.13;5095127;28;20058;-55
2022/09/08 05:36:19;;;;;;;16.85;5.80;;;;;;;17.11;100.00;100386.00;5094331;28;20075;-54
2022/09/08 05:38:47;;;;;;;15.73;6.10;;;;;;;17.04;100.00;100382.50;5086149;28;20498;-54
2022/09/08 05:41:16;;;;;;;15.18;6.43;;;;;;;17.13;100.00;100393.84;5080007;28;20386;-55
2022/09/08 05:43:43;;;;;;;17.98;7.15;;;;;;;16.98;100.00;100394.84;5091687;28;20040;-58
2022/09/08 05:46:10;;;;;;;19.80;6.55;;;;;;;16.89;100.00;100391.53;5090558;28;20758;-59
2022/09/08 05:48:40;;;;;;;14.43;5.95;;;;;;;16.77;99.58;100393.16;5091970;28;20036;-58
2022/09/08 05:51:09;;;;;;;14.52;6.30;;;;;;;16.72;99.45;100392.94;5089765;28;20079;-58
2022/09/08 05:53:37;;;;;;;17.42;5.80;;;;;;;16.48;100.00;100389.78;5082864;28;20044;-58
2022/09/08 05:56:07;;;;;;;18.23;6.03;;;;;;;16.47;99.88;100388.13;5077856;28;20570;-58
2022/09/08 05:58:34;;;;;;;14.98;5.60;;;;;;;16.32;99.92;100392.81;5092473;28;20047;-58
2022/09/08 06:01:07;;;;;;;15.57;6.15;;;;;;;16.35;100.00;100387.03;5087670;28;20308;-58
2022/09/08 06:03:34;;;;;;;15.65;4.95;;;;;;;16.37;100.00;100389.53;5091503;28;20046;-59
2022/09/08 06:06:07;;;;;;;16.48;5.35;;;;;;;16.33;100.00;100396.31;5093096;28;20569;-59
2022/09/08 06:08:35;;;;;;;18.83;6.15;;;;;;;16.35;100.00;100392.41;5092386;28;20138;-58
2022/09/08 06:11:03;;;;;;;18.38;5.85;;;;;;;16.39;100.00;100398.19;5081915;28;20040;-59
2022/09/08 06:13:32;;;;;;;19.58;6.40;;;;;;;16.26;100.00;100393.59;5082830;28;20131;-59
2022/09/08 06:16:03;;;;;;;17.58;6.05;;;;;;;16.23;100.00;100396.69;5093397;28;20126;-60
2022/09/08 06:18:33;;;;;;;22.23;7.00;;;;;;;16.26;100.00;100396.28;5092195;28;20050;-59
2022/09/08 06:21:18;;;;;;;29.13;9.57;;;;;;;16.31;100.00;100386.63;5093429;28;20052;-58
2022/09/08 06:23:50;;;;;;;18.13;7.20;;;;;;;16.41;100.00;100386.25;5091088;28;20042;-59
2022/09/08 06:29:33;;;;;;;18.00;5.03;;;;;;;16.55;100.00;100397.00;5101709;27;20541;-58
2022/09/08 06:32:21;;;;;;;15.70;5.07;;;;;;;16.56;99.19;100393.31;5103792;28;20043;-54
2022/09/08 06:34:58;;;;;;;15.95;5.28;;;;;;;16.60;100.00;100400.72;5088673;28;20063;-55
2022/09/08 06:37:35;;;;;;;15.25;4.82;;;;;;;16.60;100.00;100395.38;5079923;28;20048;-54
2022/09/08 06:40:11;;;;;;;17.90;5.15;;;;;;;16.48;100.00;100399.66;5099111;28;20486;-55
2022/09/08 06:42:48;;;;;;;15.73;4.88;;;;;;;16.41;100.00;100399.66;5092682;28;20054;-55
2022/09/08 06:45:24;;;;;;;14.25;4.28;;;;;;;16.51;100.00;100407.28;5085507;28;20585;-54
2022/09/08 06:51:16;;;;;;;21.30;5.80;;;;;;;16.56;100.00;100409.38;5069155;28;20868;-53
2022/09/08 06:53:51;;;;;;;23.13;6.32;;;;;;;16.55;100.00;100421.09;5076464;28;20045;-55
2022/09/08 06:56:31;;;;;;;15.18;5.55;;;;;;;16.66;100.00;100418.69;5057593;28;20052;-55
2022/09/08 06:59:50;;;;;;;19.58;6.45;;;;;;;16.67;100.00;100423.00;5066999;28;20470;-54
2022/09/08 07:02:41;;;;;;;19.85;6.13;;;;;;;16.84;100.00;100422.66;5047077;28;20036;-55
2022/09/08 07:05:34;;;;;;;16.77;5.70;;;;;;;16.84;100.00;100426.16;5069345;28;20465;-55
2022/09/08 07:08:28;;;;;;;21.13;6.85;;;;;;;16.47;100.00;100420.25;5059380;28;20065;-54
2022/09/08 07:11:19;;;;;;;18.23;6.55;;;;;;;16.49;100.00;100426.22;5074662;28;20417;-55
2022/09/08 07:14:26;;;;;;;19.90;5.93;;;;;;;16.67;100.00;100427.53;5066380;28;20048;-54
2022/09/08 07:17:00;;;;;;;21.38;6.00;;;;;;;16.65;100.00;100424.22;5048733;28;20053;-55
2022/09/08 07:19:44;;;;;;;15.98;5.47;;;;;;;16.79;100.00;100425.06;5069265;28;20505;-55
2022/09/08 07:25:18;;;;;;;19.00;5.97;;;;;;;16.77;100.00;100440.53;5102838;27;20570;-56
2022/09/08 07:27:52;;;;;;;17.48;6.13;;;;;;;16.65;100.00;100441.13;5122297;27;20040;-54
2022/09/08 07:30:18;;;;;;;17.52;6.15;;;;;;;16.76;100.00;100431.69;5117901;28;20063;-54
2022/09/08 07:32:52;;;;;;;17.17;5.72;;;;;;;16.64;100.00;100435.97;5127397;27;20075;-54
2022/09/08 07:35:54;;;;;;;17.08;5.45;;;;;;;16.72;100.00;100440.31;5092542;28;20047;-54
2022/09/08 07:38:30;;;;;;;16.42;5.95;;;;;;;16.73;100.00;100442.78;5109489;28;20130;-54
2022/09/08 07:40:59;;;;;;;16.15;6.30;;;;;;;16.69;100.00;100442.34;5100027;28;20143;-54
2022/09/08 07:43:26;;;;;;;13.75;5.80;;;;;;;16.70;100.00;100441.34;5125658;27;20031;-53
2022/09/08 07:46:22;;;;;;;19.08;6.32;;;;;;;16.64;100.00;100436.78;5116673;28;20093;-54
2022/09/08 07:49:13;;;;;;;15.10;5.90;;;;;;;16.77;100.00;100446.72;5108658;28;20135;-54
2022/09/08 07:51:52;;;;;;;16.98;5.68;;;;;;;16.84;100.00;100446.75;5097876;28;20043;-53
2022/09/08 07:54:59;;;;;;;18.42;5.20;;;;;;;16.84;100.00;100446.75;5128073;27;20123;-55
2022/09/08 07:57:55;;;;;;;10.02;3.28;;;;;;;16.84;100.00;100449.44;5101345;28;20097;-54
2022/09/08 08:00:35;;;;;;;9.52;2.70;;;;;;;16.91;98.43;100452.97;5121766;28;20055;-54
2022/09/08 08:03:31;;;;;;;8.88;2.22;;;;;;;16.85;97.35;100448.44;5106719;27;20443;-54
2022/09/08 08:06:07;;;;;;;10.60;2.60;;;;;;;16.71;97.70;100455.56;5090206;28;20057;-54
2022/09/08 08:08:58;;;;;;;8.98;2.47;;;;;;;16.64;97.59;100466.22;5104143;28;20680;-54
2022/09/08 08:14:34;;;;;;;10.60;3.03;;;;;;;16.62;100.00;100456.75;5119138;27;20395;-54
2022/09/08 08:17:19;;;;;;;13.20;3.35;;;;;;;16.63;100.00;100461.91;5111245;28;20048;-54
2022/09/08 08:20:05;;;;;;;9.18;2.85;;;;;;;16.86;98.79;100464.31;5115634;27;20039;-53
2022/09/08 08:23:00;;;;;;;15.73;3.38;;;;;;;16.83;98.32;100453.97;5086184;28;20036;-53
2022/09/08 08:25:32;;;;;;;9.82;3.47;;;;;;;16.86;98.94;100458.94;5098609;28;20051;-54
2022/09/08 08:28:17;;;;;;;14.35;3.17;;;;;;;17.00;98.87;100467.00;5108042;28;20152;-54
2022/09/08 08:31:24;;;;;;;8.60;3.17;;;;;;;16.96;97.48;100463.09;5104275;28;20032;-54
2022/09/08 08:34:00;;;;;;;11.10;3.58;;;;;;;17.07;99.43;100470.53;5102333;28;20082;-54
2022/09/08 08:36:30;;;;;;;9.38;3.50;;;;;;;17.20;99.83;100465.16;5098628;28;20433;-55
2022/09/08 08:39:11;;;;;;;11.02;3.70;;;;;;;17.18;95.72;100472.59;5095956;28;20051;-55
2022/09/08 08:42:15;;;;;;;8.43;3.58;;;;;;;17.23;95.71;100475.50;5114331;28;20035;-54
2022/09/08 08:45:23;;;;;;;10.77;3.60;;;;;;;17.33;96.53;100477.75;5102494;28;20039;-54
2022/09/08 08:48:08;;;;;;;11.82;4.03;;;;;;;17.17;95.50;100465.59;5111846;28;20050;-56
2022/09/08 08:51:04;;;;;;;11.30;4.40;;;;;;;17.24;96.34;100466.41;5104398;28;20731;-55
2022/09/08 08:54:04;;;;;;;11.73;4.25;;;;;;;17.20;96.50;100461.69;5081284;28;20085;-55
2022/09/08 08:56:42;;;;;;;15.65;4.47;;;;;;;17.24;97.04;100461.03;5121416;28;20079;-54
2022/09/08 08:59:26;;;;;;;11.50;4.32;;;;;;;17.33;94.73;100456.31;5109305;27;20047;-55
2022/09/08 09:08:15;;;;;;;11.13;4.10;;;;;;;17.39;94.59;100468.06;5111511;27;20339;-54
2022/09/08 09:11:13;;;;;;;13.05;3.80;;;;;;;17.73;92.90;100469.72;5089575;28;20051;-54
2022/09/08 09:17:00;;;;;;;11.13;3.67;;;;;;;18.20;92.25;100472.34;5098351;27;20382;-55
2022/09/08 09:20:03;;;;;;;7.72;3.03;;;;;;;18.36;89.23;100465.72;5061240;28;20158;-54
2022/09/08 09:22:50;;;;;;;;;;;;;;;18.15;87.24;100481.03;5084502;28;20048;-53
2022/09/08 09:25:33;;;;;;;10.55;3.20;;;;;;;17.98;87.60;100471.78;5080925;28;20346;-55
2022/09/08 09:28:39;;;;;;;8.23;3.10;;;;;;;17.89;87.37;100473.88;5060021;28;20048;-56
2022/09/08 09:34:16;;;;;;;8.85;2.90;;;;;;;17.94;85.74;100476.75;5076580;28;20439;-54
2022/09/08 09:37:02;;;;;;;12.73;2.63;;;;;;;18.21;83.43;100472.16;5061683;28;20051;-54
2022/09/08 09:39:49;;;;;;;7.25;2.72;;;;;;;18.11;83.31;100474.44;5062437;28;20041;-54
2022/09/08 09:48:10;;;;;;;8.55;2.15;;;;;;;18.05;81.24;100461.06;5116249;27;20366;-54
2022/09/08 09:50:52;;;;;;;9.75;2.40;;;;;;;17.92;82.68;100459.19;5109004;28;20058;-54
2022/09/08 09:53:40;;;;;;;9.52;2.40;;;;;;;17.72;81.89;100457.34;5103281;28;20495;-56
2022/09/08 09:56:46;;;;;;;10.52;2.35;;;;;;;18.03;79.91;100464.75;5120279;28;20050;-54
2022/09/08 09:59:53;;;;;;;7.43;2.70;;;;;;;18.56;77.79;100463.75;5099133;28;20039;-54
2022/09/08 10:02:58;;;;;;;9.77;2.70;;;;;;;19.82;73.42;100471.22;5096288;28;20077;-55
2022/09/08 10:06:04;;;;;;;7.13;2.13;;;;;;;20.64;70.30;100461.00;5100934;28;20092;-54
2022/09/08 10:09:10;;;;;;;6.95;2.60;;;;;;;20.19;72.05;100472.06;5108930;28;20056;-54
2022/09/08 10:12:16;;;;;;;9.73;2.50;;;;;;;21.33;67.13;100463.34;5105363;28;20049;-55
2022/09/08 10:15:11;;;;;;;8.52;2.10;;;;;;;19.91;69.22;100472.59;5122937;28;20507;-54
2022/09/08 10:21:16;;;;;;;6.90;1.90;;;;;;;19.54;71.74;100469.81;5107237;27;20399;-55
2022/09/08 10:24:23;;;;;;;11.43;2.63;;;;;;;19.40;73.51;100468.25;5107399;28;20039;-55
2022/09/08 10:27:31;;;;;;;12.35;2.30;;;;;;;19.50;72.98;100465.88;5105323;28;20482;-53
2022/09/08 10:30:26;;;;;;;11.98;2.70;;;;;;;19.37;70.40;100461.44;5107185;28;20031;-54
2022/09/08 10:33:21;;;;;;;10.90;2.42;;;;;;;20.30;70.80;100460.56;5089945;28;20401;-54
2022/09/08 10:35:53;;;;;;;12.65;2.75;;;;;;;19.90;70.21;100455.63;5100581;28;20040;-53
2022/09/08 10:39:00;;;;;;;8.38;1.95;;;;;;;19.84;70.31;100463.75;5104450;28;20097;-54
2022/09/08 10:42:06;;;;;;;6.97;1.92;;;;;;;20.60;64.49;100467.88;5096453;28;20047;-55
2022/09/08 10:44:50;;;;;;;6.60;1.95;;;;;;;20.52;63.77;100457.41;5107271;28;20075;-54
2022/09/08 10:47:57;;;;;;;6.78;1.70;;;;;;;20.96;64.20;100466.19;5104687;28;20068;-54
2022/09/08 10:50:31;;;;;;;8.02;1.80;;;;;;;21.06;57.30;100458.34;5085005;28;20071;-53
2022/09/08 10:53:33;;;;;;;10.23;1.42;;;;;;;20.81;59.24;100449.59;5106598;28;20123;-52
2022/09/08 10:56:08;;;;;;;;;;;;;;;21.13;58.10;100452.84;5085141;28;20043;-53
2022/09/08 10:59:03;;;;;;;6.20;1.67;;;;;;;21.37;59.75;100451.00;5107075;28;19934;-53
2022/09/08 11:08:03;;;;;;;6.65;1.70;;;;;;;21.05;58.94;100450.50;5098195;27;20389;-52
2022/09/08 11:10:52;;;;;;;4.82;1.50;;;;;;;21.41;58.61;100448.69;5106164;28;20035;-49
2022/09/08 11:13:43;;;;;;;10.25;1.80;;;;;;;21.89;57.52;100434.19;5108838;28;20047;-52
2022/09/08 11:16:38;;;;;;;6.50;1.52;;;;;;;21.93;56.16;100442.63;5107529;28;20066;-51
2022/09/08 11:19:36;;;;;;;7.43;1.50;;;;;;;21.60;56.08;100438.66;5127342;28;20042;-48
2022/09/08 11:22:43;;;;;;;4.97;1.42;;;;;;;20.79;58.35;100441.75;5087473;28;20048;-52
2022/09/08 11:25:50;;;;;;;4.25;1.50;;;;;;;21.11;57.38;100443.38;5110978;28;20092;-51
2022/09/08 11:28:34;;;;;;;7.93;1.52;;;;;;;21.69;56.01;100439.13;5114858;28;20055;-51
2022/09/08 11:31:27;;;;;;;8.57;1.80;;;;;;;22.30;56.04;100437.75;5100716;28;20044;-52
2022/09/08 11:34:36;;;;;;;8.43;1.98;;;;;;;22.63;55.04;100436.25;5105960;28;20386;-52
2022/09/08 11:37:36;;;;;;;6.25;1.60;;;;;;;22.77;53.24;100432.16;5105660;28;20051;-51
2022/09/08 11:40:37;;;;;;;4.95;1.65;;;;;;;22.43;54.80;100431.28;5105918;28;20040;-51
2022/09/08 11:43:32;;;;;;;10.15;2.20;;;;;;;22.77;54.45;100429.47;5112906;28;20050;-52
2022/09/08 11:49:37;;;;;;;9.13;1.95;;;;;;;21.69;56.56;100441.81;5176296;27;20358;-53
2022/09/08 11:55:07;;;;;;;6.38;2.00;;;;;;;;;;5090169;27;20379;-51
2022/09/08 11:58:06;;;;;;;10.18;2.10;;;;;;;20.81;58.22;100430.72;5070277;28;20036;-52
2022/09/08 12:01:06;;;;;;;9.88;1.95;;;;;;;20.67;58.91;100430.91;5092477;28;20067;-51
2022/09/08 12:04:05;;;;;;;7.25;1.80;;;;;;;20.88;58.44;100429.59;5088838;28;20040;-54
2022/09/08 12:06:59;;;;;;;9.02;2.10;;;;;;;21.55;56.55;100427.72;5087413;28;20119;-50
2022/09/08 12:09:44;;;;;;;6.00;1.77;;;;;;;21.58;55.43;100419.19;5070347;28;20509;-50
2022/09/08 12:12:32;;;;;;;8.52;1.60;;;;;;;22.06;54.78;100423.47;5091824;28;20052;-52
2022/09/08 12:15:23;;;;;;;8.98;1.77;;;;;;;22.58;53.57;100407.25;5069485;28;20041;-53
2022/09/08 12:18:21;;;;;;;5.53;1.60;;;;;;;22.66;51.53;100408.72;5088841;28;20135;-54
2022/09/08 12:21:10;;;;;;;8.55;1.70;;;;;;;23.23;51.81;100397.03;5097942;28;20451;-52
2022/09/08 12:24:11;;;;;;;13.45;2.10;;;;;;;23.45;48.50;100413.34;5086792;28;20054;-51
2022/09/08 12:29:38;;;;;;;6.25;1.50;;;;;;;23.56;47.52;100396.16;5112125;27;20036;-48
2022/09/08 12:32:41;;;;;;;7.35;1.40;;;;;;;23.26;48.71;100399.22;5109613;27;20768;-50
2022/09/08 12:35:20;;;;;;;7.00;1.33;;;;;;;23.71;48.81;100392.84;5109447;28;20059;-52
2022/09/08 12:38:03;;;;;;;4.35;1.25;;;;;;;23.66;47.74;100389.25;5098258;28;20028;-52
2022/09/08 12:40:56;;;;;;;6.55;1.55;;;;;;;23.82;46.11;100403.88;5102657;28;20075;-51
2022/09/08 12:43:25;;;;;;;9.18;1.50;;;;;;;24.15;44.25;100406.44;5085632;28;20485;-49
2022/09/08 12:46:19;;;;;;;5.68;1.40;;;;;;;23.52;45.65;100405.03;5106048;27;20097;-52
2022/09/08 12:49:26;;;;;;;9.48;1.60;;;;;;;23.36;46.86;100404.00;5101637;28;20439;-53
2022/09/08 12:52:00;;;;;;;9.60;1.42;;;;;;;23.47;47.43;100402.25;5088523;28;20391;-52
2022/09/08 13:00:09;;;;;;;6.82;1.85;;;;;;;24.35;44.36;100396.94;5097663;27;20371;-50
2022/09/08 13:03:04;;;;;;;7.78;1.52;;;;;;;24.50;43.56;100401.69;5083297;28;20032;-50
2022/09/08 13:05:53;;;;;;;8.85;1.70;;;;;;;25.00;42.99;100408.72;5080740;28;20040;-51
2022/09/08 13:11:10;;;;;;;6.03;1.80;;;;;;;24.00;43.90;100408.97;5099127;27;20124;-51